Date,TemperatureHighF,TemperatureAvgF,TemperatureLowF,DewpointHighF,DewpointAvgF,DewpointLowF,HumidityHigh,HumidityAvg,HumidityLow,PressureMaxIn,PressureMinIn,WindSpeedMaxMPH,WindSpeedAvgMPH,GustSpeedMaxMPH,PrecipitationSumIn
2013-1-1,31.7,24.0,14.5,30.7,20.6,11.3,96,87,77,30.35,30.13,12,2,12,0.00
2013-1-2,27.6,17.5,7.9,17.7,12.0,5.6,91,80,59,30.43,30.33,4,0,6,0.05
2013-1-3,35.4,24.7,11.9,26.6,19.5,9.7,93,81,68,30.50,30.34,10,2,10,0.02
2013-1-4,35.2,27.2,19.8,26.2,22.4,17.5,93,82,65,30.55,30.42,12,2,12,0.02
2013-1-5,40.4,31.4,21.6,32.2,27.1,19.1,94,84,66,30.43,30.19,13,2,13,0.05
2013-1-6,38.1,31.0,18.5,32.7,25.8,16.6,93,81,69,30.47,30.12,20,4,20,0.03
2013-1-7,38.9,28.0,16.5,28.4,23.1,14.3,94,83,62,30.54,30.27,15,2,15,0.00
2013-1-8,46.3,35.7,24.2,34.7,29.2,21.8,93,78,57,30.33,30.20,11,2,11,0.02
2013-1-9,55.0,44.4,37.1,44.9,38.5,33.0,97,81,56,30.51,30.23,9,2,10,0.00
2013-1-10,58.0,46.4,39.4,57.4,42.6,32.2,98,87,64,30.50,29.80,20,3,20,0.00
2013-1-11,60.7,54.8,50.9,57.6,50.6,47.2,98,86,70,29.90,29.78,12,4,14,0.00
2013-1-12,61.8,51.1,33.9,55.3,48.1,32.1,96,90,75,29.93,29.69,24,3,24,0.00
2013-1-13,34.3,27.6,19.3,32.5,25.0,15.1,95,90,82,30.44,29.83,18,4,18,0.02
2013-1-14,25.9,20.2,16.4,19.0,15.7,12.1,92,83,73,30.62,30.44,12,2,12,0.00
2013-1-15,28.5,23.8,16.5,24.3,19.5,14.1,92,84,75,30.54,30.19,16,4,16,0.00
2013-1-16,36.8,29.7,22.0,26.0,23.5,19.0,93,78,55,30.23,30.11,10,2,10,0.01
2013-1-17,39.9,32.4,22.9,33.9,27.0,20.7,91,81,64,30.58,30.19,21,2,21,0.02
2013-1-18,44.7,32.4,19.7,31.9,25.8,18.0,95,78,57,30.61,30.19,13,3,13,0.03
2013-1-19,54.2,45.2,37.0,39.1,34.7,30.0,77,67,54,30.22,29.89,16,5,18,0.01
2013-1-20,44.8,31.3,24.6,34.2,19.3,12.2,81,61,40,30.32,30.05,19,3,19,0.01
2013-1-21,24.8,20.3,13.2,15.8,6.8,-0.4,78,56,38,30.46,30.27,20,5,26,0.03
2013-1-22,19.2,15.2,10.4,12.2,5.1,-2.0,83,64,50,30.58,30.45,13,2,13,0.00
2013-1-23,38.0,24.6,11.6,23.5,16.7,8.9,90,73,53,30.49,30.20,17,2,17,0.02
2013-1-24,26.9,20.4,14.7,18.1,9.9,3.5,73,63,49,30.66,30.34,20,6,20,0.01
2013-1-25,38.5,30.5,25.6,24.6,17.6,8.9,78,59,48,30.32,30.13,10,3,16,0.00
2013-1-26,35.8,28.8,21.4,22.3,17.8,13.0,80,64,46,30.43,30.24,8,2,10,0.31
2013-1-27,44.6,32.3,25.3,43.3,28.5,18.7,97,86,72,30.37,30.01,12,3,14,0.13
2013-1-28,57.8,53.9,44.6,56.8,52.6,43.3,97,95,92,30.02,29.85,7,5,12,0.13
2013-1-29,65.9,60.5,52.1,59.5,57.2,51.0,96,89,78,29.85,29.29,14,6,25,0.04
2013-1-30,52.5,41.3,27.6,50.8,37.5,19.3,97,86,69,29.92,29.32,24,8,32,0.03
2013-1-31,32.3,22.2,11.8,26.4,14.3,2.4,91,71,62,30.47,29.92,28,8,28,0.08
2013-2-1,24.5,16.5,8.4,15.7,7.1,0.8,74,66,56,30.67,30.38,19,4,25,0.03
2013-2-2,39.2,27.9,24.3,27.1,20.7,15.3,86,75,57,30.38,30.10,9,2,19,0.02
2013-2-3,32.6,27.8,21.6,28.2,23.2,17.3,95,83,60,30.20,30.03,24,3,24,0.01
2013-2-4,49.9,35.7,23.4,41.2,29.3,18.4,88,78,65,30.11,29.80,16,4,16,0.23
2013-2-5,51.2,36.9,25.6,39.0,30.8,23.4,93,80,60,30.15,29.89,18,2,18,0.02
2013-2-6,32.8,27.2,24.2,28.4,25.1,22.5,94,91,86,30.21,30.14,4,0,4,0.00
2013-2-7,62.9,49.9,32.4,50.9,41.8,29.7,95,76,54,30.11,29.79,17,4,21,0.15
2013-2-8,39.9,34.2,30.8,37.7,29.7,25.4,92,84,77,30.41,29.96,22,4,22,0.00
2013-2-9,46.1,36.3,30.3,35.0,29.4,25.2,86,76,58,30.42,30.06,13,3,13,0.02
2013-2-10,53.2,46.0,37.9,50.8,43.3,34.7,96,90,59,30.10,29.59,20,5,20,0.59
2013-2-11,50.3,41.2,29.2,36.7,30.3,26.4,90,66,47,30.14,29.71,36,6,36,0.00
2013-2-12,45.9,35.4,24.2,32.9,28.1,22.5,95,76,55,30.19,29.98,11,1,11,0.00
2013-2-13,50.1,42.1,34.2,35.9,33.2,31.2,91,72,50,29.94,29.80,13,3,13,0.00
2013-2-14,54.7,42.4,32.7,38.0,33.6,30.6,93,73,48,30.03,29.82,20,4,20,0.00
2013-2-15,38.6,32.6,22.8,32.5,23.7,15.9,92,71,41,30.26,30.02,16,2,16,0.00
2013-2-16,34.0,25.6,18.8,19.8,15.8,11.7,89,67,42,30.29,30.22,18,3,18,0.00
2013-2-17,44.3,30.3,15.7,25.2,20.3,13.5,92,69,41,30.30,30.03,11,2,13,0.00
2013-2-18,55.4,43.5,34.1,46.5,38.1,24.0,95,82,66,30.03,29.56,27,7,27,0.43
2013-2-19,36.4,29.0,23.5,31.5,19.3,12.5,83,67,50,30.33,29.82,29,8,29,0.00
2013-2-20,25.7,21.5,16.7,15.8,13.3,10.0,89,71,61,30.48,30.32,13,3,16,0.00
2013-2-21,31.8,24.8,15.9,30.5,21.4,13.5,95,87,73,30.42,29.86,26,4,26,0.03
2013-2-22,36.9,32.1,23.0,33.3,29.0,21.0,96,88,75,30.10,29.84,16,3,16,0.34
2013-2-23,33.2,25.5,18.0,24.7,20.4,16.1,93,81,64,30.09,30.03,12,2,12,0.10
2013-2-24,46.3,31.4,16.8,32.0,23.8,14.8,95,75,52,30.21,30.07,10,1,10,0.10
2013-2-25,48.1,39.0,30.1,34.6,30.0,25.7,85,71,54,30.11,29.58,25,6,25,0.01
2013-2-26,47.7,39.9,34.2,43.3,37.3,30.9,95,90,69,29.60,29.31,22,5,22,0.82
2013-2-27,36.1,33.3,31.3,32.5,30.6,28.1,94,90,84,29.87,29.59,22,8,22,0.05
2013-2-28,34.9,32.5,31.2,31.7,29.7,28.2,94,89,85,30.10,29.86,18,5,18,0.01
2013-3-1,35.1,31.7,29.2,32.0,29.4,26.1,95,91,82,30.17,30.06,13,2,13,0.11
2013-3-2,32.4,27.4,22.9,26.4,22.1,16.8,89,81,62,30.25,30.17,14,3,16,0.02
2013-3-3,36.2,27.8,17.1,24.4,19.8,15.2,94,73,50,30.25,30.12,12,1,12,0.01
2013-3-4,49.0,40.1,32.2,34.2,29.9,22.8,81,67,53,30.13,29.77,20,4,20,0.00
2013-3-5,42.9,35.1,30.4,35.5,30.4,24.4,95,83,67,30.04,29.74,30,6,30,0.10
2013-3-6,34.9,31.5,26.4,28.3,25.8,22.9,87,79,72,30.39,30.04,29,5,29,0.04
2013-3-7,44.1,31.1,20.7,32.4,25.6,19.0,94,81,59,30.49,30.38,9,1,9,0.00
2013-3-8,51.6,39.1,26.3,35.3,30.0,23.7,91,71,47,30.48,30.23,16,2,16,0.00
2013-3-9,61.0,48.6,38.8,41.5,36.2,30.7,82,63,45,30.24,29.80,18,4,18,0.01
2013-3-10,63.4,54.8,48.1,52.3,46.2,38.0,96,74,54,29.80,29.55,26,5,26,0.31
2013-3-11,49.7,37.9,34.0,48.0,34.4,28.6,95,87,78,29.96,29.58,21,7,21,0.06
2013-3-12,46.7,36.7,28.8,32.2,27.0,21.2,86,69,46,30.16,29.96,19,5,20,0.01
2013-3-13,39.1,32.2,23.8,26.9,21.6,17.4,88,66,49,30.44,30.16,23,4,23,0.00
2013-3-14,46.0,32.2,20.8,32.2,25.4,18.9,94,77,56,30.44,30.14,12,2,12,0.00
2013-3-15,32.1,30.2,29.1,28.6,27.7,26.8,92,90,87,30.14,30.00,5,1,6,0.00
2013-3-16,63.6,43.0,36.7,51.4,37.9,33.8,91,83,60,29.99,29.55,17,5,17,0.06
2013-3-17,36.7,34.8,32.4,35.1,32.5,28.8,95,91,86,30.08,29.74,20,6,20,0.75
2013-3-18,45.2,39.6,36.3,38.5,36.1,29.5,96,88,65,29.96,29.63,23,4,23,0.44
2013-3-19,46.1,36.2,28.2,29.3,22.4,16.3,89,59,33,30.20,29.96,25,4,25,0.32
2013-3-20,34.1,29.1,23.2,26.7,18.9,12.9,91,66,47,30.25,30.12,22,4,22,0.18
2013-3-21,35.0,26.7,18.1,20.5,16.0,12.0,78,64,49,30.16,30.03,12,2,12,0.05
2013-3-22,42.2,33.7,27.0,25.8,21.5,18.4,78,62,42,30.09,30.00,10,1,10,0.01
2013-3-23,54.0,44.1,34.3,34.8,29.5,24.0,74,57,43,30.04,29.74,19,5,19,0.00
2013-3-24,44.5,33.6,30.7,34.1,31.4,29.5,96,92,59,29.79,29.41,29,6,29,0.31
2013-3-25,34.3,31.1,29.3,30.6,28.8,26.7,96,91,82,30.17,29.69,20,5,20,0.17
2013-3-26,39.7,33.2,26.2,28.8,26.2,23.6,91,76,56,30.37,30.17,19,3,20,0.30
2013-3-27,45.5,33.9,21.9,31.6,26.1,20.2,95,75,48,30.43,30.33,10,2,10,0.05
2013-3-28,55.7,42.9,28.5,39.3,31.3,24.4,89,65,47,30.40,30.24,11,1,11,0.00
2013-3-29,57.9,48.5,38.2,46.8,40.6,31.5,93,75,59,30.25,30.14,11,2,11,0.00
2013-3-30,59.3,44.1,31.2,47.4,40.4,29.9,97,88,58,30.17,29.87,11,2,11,0.20
2013-3-31,65.2,53.0,45.6,51.2,45.1,36.9,96,78,37,29.87,29.76,15,3,15,0.00
2013-4-1,51.3,41.8,31.6,40.5,28.2,22.9,76,60,39,30.19,29.84,19,4,19,0.00
2013-4-2,46.8,35.9,24.9,27.5,21.8,16.6,87,59,32,30.35,30.19,14,2,14,0.00
2013-4-3,52.7,39.8,25.6,28.2,24.3,20.6,90,58,32,30.40,30.24,20,3,20,0.00
2013-4-4,60.3,44.1,28.8,32.2,25.9,20.1,82,52,26,30.24,29.97,15,2,17,0.00
2013-4-5,64.8,51.7,32.8,42.2,34.9,28.9,89,56,30,30.11,30.00,12,2,14,0.00
2013-4-6,73.3,59.6,44.3,46.5,40.2,33.9,73,50,32,30.02,29.70,22,6,22,0.00
2013-4-7,76.8,63.6,53.7,60.9,51.5,45.0,92,67,42,29.84,29.73,15,3,22,0.20
2013-4-8,75.2,65.4,57.6,62.0,57.1,52.7,88,75,60,29.86,29.68,15,5,15,0.00
2013-4-9,80.0,69.4,60.9,64.4,60.3,55.7,86,73,54,29.95,29.81,23,5,23,0.00
2013-4-10,82.0,71.0,59.1,69.7,64.9,57.7,95,82,65,29.85,29.63,24,5,24,0.51
2013-4-11,63.1,49.7,40.1,61.9,45.6,31.1,96,86,70,29.82,29.58,21,6,24,0.80
2013-4-12,48.4,40.8,35.6,36.0,32.7,30.8,88,73,57,30.13,29.80,22,4,23,0.00
2013-4-13,59.9,47.6,32.8,42.6,36.1,30.5,92,66,45,30.19,30.02,19,3,19,0.00
2013-4-14,77.3,60.6,44.5,54.2,46.8,38.8,84,62,39,30.03,29.73,19,5,19,0.00
2013-4-15,74.6,63.9,54.6,63.1,56.6,49.3,89,77,65,29.94,29.81,13,3,13,0.00
2013-4-16,62.7,52.2,49.4,58.5,49.9,47.0,95,92,84,30.21,29.86,17,5,17,0.20
2013-4-17,82.9,65.4,50.1,73.1,60.7,48.7,97,86,67,30.19,29.76,11,4,13,0.00
2013-4-18,73.7,63.4,42.1,66.5,58.8,36.2,96,86,70,29.78,29.57,26,6,26,1.32
2013-4-19,49.6,41.7,35.5,36.2,30.9,27.8,84,66,47,30.17,29.74,27,8,27,0.90
2013-4-20,53.9,42.4,29.1,34.8,30.7,26.5,95,66,37,30.38,30.17,14,2,14,0.01
2013-4-21,62.5,49.9,37.2,42.3,34.8,29.9,75,57,40,30.43,30.25,16,3,16,0.00
2013-4-22,73.0,57.1,38.6,52.3,42.6,33.4,85,60,38,30.25,29.94,9,1,9,0.00
2013-4-23,60.4,54.0,41.8,59.1,50.5,40.2,96,88,72,29.97,29.71,17,2,17,0.60
2013-4-24,49.7,42.0,36.5,40.5,36.5,32.2,95,82,52,30.25,29.86,19,3,19,0.67
2013-4-25,60.1,47.4,35.0,41.2,36.2,32.9,93,68,38,30.34,30.23,15,3,15,0.00
2013-4-26,60.8,50.4,41.5,48.2,43.1,35.7,89,77,58,30.39,30.23,7,1,9,0.00
2013-4-27,56.6,52.7,48.8,53.3,50.1,46.1,96,91,84,30.28,29.89,14,2,14,0.14
2013-4-28,59.1,53.6,45.9,54.2,51.7,44.3,97,93,82,29.94,29.84,14,4,14,0.04
2013-4-29,75.0,59.7,42.5,63.2,53.8,41.4,97,83,61,29.99,29.82,10,2,10,0.00
2013-4-30,83.6,69.4,55.6,66.3,59.2,53.0,92,72,48,29.92,29.82,7,2,10,0.00
2013-5-1,83.6,69.0,53.2,65.2,58.4,50.9,93,71,44,30.05,29.92,13,1,13,0.00
2013-5-2,79.5,65.3,52.1,66.4,59.9,49.8,96,84,58,30.09,29.96,13,2,13,0.52
2013-5-3,57.0,50.5,43.9,54.6,49.0,42.6,96,95,91,30.05,29.75,9,2,17,1.00
2013-5-4,47.4,44.5,41.9,45.5,43.1,40.8,96,95,92,30.03,29.86,7,0,7,0.48
2013-5-5,57.5,52.3,45.5,55.7,50.8,44.4,97,95,90,30.01,29.87,16,3,16,0.39
2013-5-6,64.0,57.6,52.3,58.3,54.3,50.3,96,89,77,29.94,29.86,18,4,18,0.05
2013-5-7,75.3,62.1,51.2,61.3,55.8,50.0,97,82,52,30.01,29.92,8,1,15,0.00
2013-5-8,79.9,65.4,50.2,62.2,54.8,48.9,96,73,37,30.01,29.93,12,1,12,0.00
2013-5-9,78.8,67.5,59.5,68.2,61.4,55.7,93,81,61,29.96,29.75,20,1,20,0.13
2013-5-10,69.8,60.7,54.7,63.0,57.2,50.3,95,88,77,29.95,29.75,20,2,20,0.04
2013-5-11,68.8,57.3,45.4,57.0,46.8,33.4,94,71,36,30.13,29.94,21,3,21,0.01
2013-5-12,59.9,49.5,36.0,39.8,35.3,29.3,93,62,36,30.23,30.13,18,3,18,0.00
2013-5-13,68.9,55.1,35.3,47.4,41.3,34.0,96,64,32,30.27,30.08,6,1,12,0.00
2013-5-14,87.5,69.1,50.9,68.2,57.0,44.0,81,67,47,30.08,29.76,17,2,17,0.00
2013-5-15,85.7,75.8,65.6,69.8,62.7,55.7,81,64,52,29.89,29.76,17,3,17,0.00
2013-5-16,80.7,69.4,61.5,69.2,63.6,59.4,93,82,57,29.90,29.77,16,2,16,0.00
2013-5-17,77.4,68.0,60.7,68.7,63.2,58.8,95,85,70,29.94,29.86,13,1,13,0.00
2013-5-18,81.5,70.1,62.3,69.9,64.3,60.3,95,83,63,29.96,29.85,10,1,10,0.00
2013-5-19,89.3,75.6,62.9,78.3,69.2,60.8,94,82,63,29.87,29.68,11,1,11,0.00
2013-5-20,83.1,75.9,66.6,73.7,68.5,60.9,88,78,66,29.86,29.65,27,1,27,0.04
2013-5-21,79.5,69.0,62.6,71.7,65.1,60.8,96,88,69,29.87,29.65,19,1,27,0.90
2013-5-22,75.5,66.0,61.9,66.7,62.0,57.6,93,88,64,29.79,29.62,16,2,16,0.17
2013-5-23,65.5,59.1,50.4,60.2,54.7,46.4,93,86,69,30.23,29.80,18,4,18,0.06
2013-5-24,70.3,54.6,41.6,49.4,44.1,36.1,93,70,39,30.42,30.23,23,3,23,0.00
2013-5-25,70.2,58.2,43.2,58.4,49.5,41.6,96,75,49,30.39,30.15,14,1,14,0.00
2013-5-26,77.4,65.7,53.3,67.7,57.3,47.2,86,75,61,30.22,30.00,15,2,15,0.00
2013-5-27,82.9,69.8,62.5,70.6,63.1,58.1,95,80,58,30.01,29.71,27,2,27,0.50
2013-5-28,84.2,72.7,62.5,73.7,66.5,60.8,95,82,62,29.89,29.77,18,1,18,0.06
2013-5-29,85.8,75.8,64.3,74.9,67.0,60.5,88,75,60,29.93,29.80,12,1,12,0.00
2013-5-30,85.8,74.1,65.0,74.5,68.7,63.1,95,84,66,29.88,29.76,14,1,14,0.04
2013-5-31,81.0,72.0,62.2,74.6,68.4,60.5,96,89,75,29.89,29.71,15,2,18,0.02
2013-6-1,73.0,66.1,62.3,68.0,63.8,60.6,96,92,82,29.86,29.68,18,2,18,0.02
2013-6-2,69.0,62.1,56.6,62.9,58.8,55.1,96,89,77,29.99,29.82,13,1,13,0.01
2013-6-3,68.8,59.7,51.0,56.3,53.2,49.2,95,80,56,30.08,29.97,13,2,13,0.01
2013-6-4,74.7,62.5,47.2,62.2,55.9,45.8,96,80,60,30.09,29.97,10,1,10,0.00
2013-6-5,82.1,69.6,57.1,68.0,62.1,55.2,95,79,51,29.99,29.77,7,1,7,0.00
2013-6-6,80.5,70.9,63.7,68.2,63.7,60.6,94,79,56,29.80,29.72,13,2,13,0.01
2013-6-7,76.3,67.4,59.1,63.7,60.4,57.1,93,79,59,29.84,29.75,14,2,14,0.00
2013-6-8,80.6,66.9,54.3,65.9,59.3,52.9,96,78,49,29.94,29.83,11,1,11,0.00
2013-6-9,82.0,67.6,58.9,68.2,62.1,57.3,95,84,53,29.93,29.74,17,1,17,0.01
2013-6-10,77.3,68.9,58.8,68.8,63.9,57.3,96,85,66,29.87,29.73,11,1,14,0.00
2013-6-11,90.8,74.8,56.6,79.0,69.0,55.2,96,83,64,29.95,29.78,9,1,9,1.25
2013-6-12,91.1,83.3,72.1,80.3,75.5,69.7,94,78,65,29.94,29.69,15,3,15,0.00
2013-6-13,82.8,74.5,60.8,72.9,65.5,58.2,91,75,48,29.97,29.69,19,4,19,0.00
2013-6-14,81.4,68.6,55.2,66.7,59.8,53.5,95,76,50,30.11,29.94,13,1,13,0.00
2013-6-15,88.3,73.6,59.6,73.7,65.6,57.6,95,78,52,30.12,29.93,22,1,22,0.00
2013-6-16,73.2,68.7,66.1,70.0,66.4,64.0,95,92,88,30.04,29.94,12,0,16,0.23
2013-6-17,86.3,74.0,63.9,76.7,69.2,62.4,96,86,66,29.98,29.83,18,1,18,0.58
2013-6-18,86.8,72.8,60.6,73.9,66.2,59.4,96,81,55,29.96,29.87,14,1,14,0.01
2013-6-19,85.4,72.7,60.9,71.2,65.5,59.4,96,80,54,30.07,29.95,10,1,10,0.00
2013-6-20,86.4,71.6,63.4,74.0,66.6,61.8,96,86,57,30.14,30.06,7,0,7,0.00
2013-6-21,90.4,82.0,67.4,77.6,72.7,65.6,95,74,55,30.12,30.00,12,1,12,0.00
2013-6-22,89.5,74.6,65.8,78.4,69.9,64.3,95,86,58,30.14,30.00,18,1,18,0.46
2013-6-23,79.3,69.8,65.2,74.6,67.5,63.7,96,93,77,30.10,30.01,15,1,15,1.64
2013-6-24,90.2,75.9,66.0,80.8,71.8,64.8,96,88,66,30.12,29.96,12,0,12,0.02
2013-6-25,90.9,80.2,70.7,80.1,74.3,68.9,95,83,65,29.98,29.78,14,1,14,0.00
2013-6-26,86.6,76.2,70.8,79.7,73.0,69.0,96,90,78,29.90,29.66,19,1,19,0.38
2013-6-27,91.4,79.1,69.4,77.7,71.9,67.9,96,80,52,29.84,29.72,18,2,18,0.00
2013-6-28,86.7,77.6,67.6,74.3,67.4,58.8,93,73,44,29.81,29.65,19,2,19,0.00
2013-6-29,80.7,69.6,62.0,69.6,63.5,59.7,94,82,61,29.69,29.60,19,3,19,0.03
2013-6-30,74.9,66.5,61.7,68.8,63.6,60.0,95,91,75,29.89,29.69,14,2,18,0.15
2013-7-1,68.3,64.4,61.6,65.6,62.3,59.6,95,93,89,29.96,29.86,11,2,18,1.13
2013-7-2,65.0,63.7,62.0,63.5,62.2,60.6,95,95,94,30.04,29.91,14,3,14,2.46
2013-7-3,81.3,68.6,60.4,67.5,62.6,58.7,96,83,51,30.12,30.02,9,1,9,0.01
2013-7-4,82.8,70.2,55.3,69.7,62.9,53.9,96,79,49,30.13,30.02,11,1,11,0.00
2013-7-5,80.7,70.6,61.3,71.9,66.0,59.9,95,86,67,30.11,30.02,10,1,10,0.00
2013-7-6,86.1,74.1,64.9,75.4,68.1,59.2,95,82,60,30.07,29.96,19,1,19,0.00
2013-7-7,89.2,74.7,59.6,78.2,68.6,57.6,95,82,60,30.09,30.00,7,0,7,0.00
2013-7-8,89.7,78.8,68.3,79.5,72.9,66.2,94,83,62,30.10,30.00,11,1,11,0.00
2013-7-9,92.1,81.1,72.8,81.4,75.5,70.7,93,84,64,30.04,29.91,13,0,13,0.00
2013-7-10,84.7,77.6,71.3,76.9,73.4,69.2,94,87,72,29.96,29.85,18,2,18,0.05
2013-7-11,80.5,72.2,61.2,69.1,63.3,59.2,95,76,54,30.05,29.93,18,3,18,0.00
2013-7-12,82.7,70.0,57.1,66.3,60.6,55.4,95,75,48,30.14,30.04,12,1,12,0.00
2013-7-13,83.4,71.4,57.8,69.0,63.2,56.1,95,77,53,30.11,30.02,15,2,15,0.00
2013-7-14,87.0,74.7,62.1,77.6,69.2,60.1,94,84,62,30.15,30.06,12,0,12,0.03
2013-7-15,87.8,78.2,69.8,79.7,73.5,68.0,95,86,68,30.24,30.14,14,0,14,0.05
2013-7-16,92.0,80.1,68.1,79.4,72.8,66.3,95,80,54,30.31,30.22,8,0,8,0.00
2013-7-17,94.9,81.5,69.2,79.8,73.9,67.4,95,80,55,30.32,30.16,6,0,6,0.00
2013-7-18,95.8,81.5,70.1,81.3,74.5,68.3,95,81,54,30.19,29.99,6,0,6,0.00
2013-7-19,92.7,80.9,70.4,80.6,74.1,68.6,95,81,59,30.00,29.85,8,1,8,0.00
2013-7-20,92.3,78.4,69.0,82.2,73.3,67.2,94,85,67,29.91,29.72,21,0,21,2.44
2013-7-21,82.8,73.8,67.5,76.7,70.8,65.7,95,91,78,29.95,29.83,7,0,7,0.04
2013-7-22,86.7,77.6,69.8,77.9,72.3,68.0,94,85,66,29.84,29.75,9,2,13,0.04
2013-7-23,91.2,79.5,71.2,80.8,73.4,65.7,94,83,63,29.86,29.73,13,1,13,0.02
2013-7-24,77.4,69.3,57.9,66.1,59.5,54.0,92,72,51,30.04,29.86,13,4,17,0.00
2013-7-25,80.5,66.6,53.8,65.7,58.5,52.0,94,77,48,30.14,30.03,11,1,11,0.00
2013-7-26,76.9,66.9,56.1,69.5,63.1,54.3,94,88,72,30.11,29.97,9,0,9,0.02
2013-7-27,76.1,67.9,52.7,66.3,60.0,50.5,94,77,53,30.02,29.94,16,2,17,0.00
2013-7-28,78.3,63.6,48.5,62.3,55.3,46.6,94,77,49,30.09,30.00,12,1,13,0.00
2013-7-29,80.5,67.2,52.7,68.6,61.0,51.0,94,82,51,30.20,30.09,1,0,1,0.00
2013-7-30,69.9,67.2,64.3,67.8,64.9,62.0,94,92,86,30.17,30.04,8,0,8,0.60
2013-7-31,84.0,74.2,68.5,75.7,70.1,66.7,94,87,73,30.06,29.96,13,1,13,0.01
2013-8-1,85.4,72.7,62.3,70.5,65.4,60.6,94,80,50,30.07,29.99,4,0,12,0.00
2013-8-2,84.3,73.7,62.2,75.3,69.5,60.2,94,87,69,30.01,29.93,8,0,9,0.17
2013-8-3,85.0,73.8,64.0,75.4,69.1,61.7,94,86,67,30.09,29.93,12,0,12,43.73
2013-8-4,79.5,68.9,57.5,69.9,61.9,55.6,94,80,54,30.20,30.09,1,0,1,17.31
2013-8-5,77.7,67.0,57.7,68.7,62.8,55.6,94,87,69,30.13,29.93,2,0,2,0.00
2013-8-6,86.7,75.0,67.5,77.9,69.9,65.0,93,85,64,29.95,29.85,11,1,11,0.00
2013-8-7,86.8,74.3,67.2,78.0,70.3,65.1,94,88,70,29.91,29.83,11,1,11,0.00
2013-8-8,84.2,73.5,65.6,78.6,70.4,63.5,94,90,77,29.94,29.84,0,0,0,0.12
2013-8-9,82.8,74.1,69.0,74.8,70.4,66.9,94,89,67,30.05,29.92,0,0,0,0.03
2013-8-10,85.8,74.8,65.8,72.9,68.0,63.7,93,81,57,30.13,30.04,0,0,0,0.00
2013-8-11,85.1,71.8,59.9,69.5,63.9,57.8,93,78,51,30.15,30.05,1,0,1,0.00
2013-8-12,83.5,71.3,61.6,77.8,68.3,59.6,93,90,77,30.09,29.89,18,0,18,0.18
2013-8-13,78.3,69.3,60.3,70.5,64.6,55.1,94,85,71,30.14,29.92,16,2,16,0.01
2013-8-14,72.0,60.9,48.8,57.4,53.1,46.8,93,77,55,30.24,30.13,16,2,16,0.00
2013-8-15,74.2,62.6,49.1,60.4,54.9,47.2,93,77,55,30.22,30.12,13,1,13,0.00
2013-8-16,77.0,65.6,50.8,64.8,57.8,48.8,93,77,54,30.18,30.14,14,1,14,0.00
2013-8-17,75.5,66.4,57.0,68.3,61.4,55.0,93,85,70,30.21,30.13,12,0,12,0.00
2013-8-18,83.3,68.5,62.0,73.5,64.4,59.8,93,88,62,30.19,30.09,17,0,17,0.17
2013-8-19,85.5,71.6,57.5,73.9,64.6,55.5,93,80,55,30.15,30.04,0,0,0,0.00
2013-8-20,88.5,77.4,60.6,74.8,69.2,58.6,93,77,55,30.13,30.03,0,0,0,0.00
2013-8-21,89.9,75.8,62.2,75.6,68.6,60.2,93,80,55,30.14,30.03,2,0,2,0.00
2013-8-22,90.8,81.6,65.7,78.3,73.5,63.6,93,78,57,30.10,29.98,12,1,12,0.00
2013-8-23,87.8,76.4,66.7,73.8,69.7,64.6,93,81,56,30.10,30.02,14,2,14,0.01
2013-8-24,88.4,75.3,62.8,76.1,66.9,60.5,93,77,48,30.22,30.10,10,0,10,0.00
2013-8-25,91.2,74.6,58.3,72.4,64.4,56.3,93,74,38,30.29,30.18,0,0,0,0.00
2013-8-26,92.9,77.9,67.5,78.8,71.5,65.0,93,82,51,30.23,30.06,10,1,10,0.00
2013-8-27,94.2,78.9,68.5,79.4,72.7,66.4,93,83,55,30.08,29.96,11,1,11,0.00
2013-8-28,93.0,52.8,0.0,75.9,48.2,0.0,89,29,55,30.01,29.93,14,2,14,0.00